createdAt,value
2022-09-28T00:01:00.549Z,53.00
2022-09-28T00:03:28.952Z,53.00
2022-09-28T00:06:03.314Z,53.00
2022-09-28T00:08:31.457Z,53.00
2022-09-28T00:11:00.644Z,53.00
2022-09-28T00:13:29.442Z,53.00
2022-09-28T00:16:01.561Z,53.00
2022-09-28T00:18:29.713Z,53.10
2022-09-28T00:21:06.035Z,53.00
2022-09-28T00:23:34.667Z,53.00
2022-09-28T00:26:05.203Z,53.00
2022-09-28T00:28:33.453Z,52.90
2022-09-28T00:31:01.332Z,53.00
2022-09-28T00:33:29.203Z,53.00
2022-09-28T00:35:58.028Z,52.90
2022-09-28T00:38:28.803Z,53.00
2022-09-28T00:40:56.733Z,52.90
2022-09-28T00:43:26.356Z,52.90
2022-09-28T00:45:59.728Z,52.90
2022-09-28T00:48:30.625Z,53.00
2022-09-28T00:51:00.176Z,53.00
2022-09-28T00:53:32.208Z,52.90
2022-09-28T00:56:04.022Z,53.00
2022-09-28T00:58:36.642Z,52.90
2022-09-28T01:01:05.225Z,53.00
2022-09-28T01:03:34.698Z,52.90
2022-09-28T01:06:05.526Z,53.00
2022-09-28T01:08:34.918Z,53.00
2022-09-28T01:11:03.662Z,53.00
2022-09-28T01:13:34.435Z,52.90
2022-09-28T01:16:10.001Z,52.90
2022-09-28T01:18:47.488Z,53.00
2022-09-28T01:21:19.757Z,53.00
2022-09-28T01:24:15.083Z,53.00
2022-09-28T01:26:56.324Z,53.00
2022-09-28T01:29:33.448Z,53.00
2022-09-28T01:32:11.882Z,53.00
2022-09-28T01:34:46.105Z,53.00
2022-09-28T01:37:17.527Z,53.00
2022-09-28T01:39:49.687Z,53.00
2022-09-28T01:42:24.395Z,53.00
2022-09-28T01:44:55.569Z,53.00
2022-09-28T01:47:25.701Z,53.00
2022-09-28T01:49:59.756Z,53.00
2022-09-28T01:52:31.787Z,53.00
2022-09-28T01:55:04.087Z,53.00
2022-09-28T01:57:39.334Z,53.00
2022-09-28T02:00:10.554Z,53.00
2022-09-28T02:02:42.041Z,53.00
2022-09-28T02:05:16.209Z,53.00
2022-09-28T02:07:49.856Z,53.00
2022-09-28T02:10:25.202Z,53.00
2022-09-28T02:13:00.057Z,53.00
2022-09-28T02:15:34.471Z,53.00
2022-09-28T02:18:02.684Z,53.00
2022-09-28T02:20:32.515Z,53.10
2022-09-28T02:23:03.061Z,53.00
2022-09-28T02:25:37.765Z,53.00
2022-09-28T02:28:08.585Z,53.00
2022-09-28T02:30:39.383Z,53.00
2022-09-28T02:33:13.214Z,53.00
2022-09-28T02:35:42.918Z,53.00
2022-09-28T02:38:12.026Z,52.90
2022-09-28T02:40:40.417Z,53.00
2022-09-28T02:43:18.038Z,53.10
2022-09-28T02:46:01.816Z,53.00
2022-09-28T02:49:10.424Z,53.10
2022-09-28T02:51:48.310Z,53.00
2022-09-28T02:54:41.063Z,53.00
2022-09-28T02:57:20.850Z,53.00
2022-09-28T03:00:01.126Z,53.00
2022-09-28T03:02:33.009Z,53.00
2022-09-28T03:05:10.715Z,53.00
2022-09-28T03:07:42.549Z,53.00
2022-09-28T03:10:17.780Z,53.00
2022-09-28T03:12:48.628Z,53.00
2022-09-28T03:15:22.188Z,53.00
2022-09-28T03:17:50.027Z,53.00
2022-09-28T03:20:18.401Z,53.00
2022-09-28T03:23:00.220Z,53.00
2022-09-28T03:25:34.235Z,53.00
2022-09-28T03:28:02.843Z,53.10
2022-09-28T03:30:32.075Z,53.00
2022-09-28T03:33:00.296Z,53.10
2022-09-28T03:35:28.137Z,53.00
2022-09-28T03:37:56.852Z,53.00
2022-09-28T03:40:24.847Z,53.00
2022-09-28T03:42:52.663Z,53.70
2022-09-28T03:45:20.562Z,53.10
2022-09-28T03:47:50.040Z,53.70
2022-09-28T03:50:17.896Z,53.00
2022-09-28T03:52:45.765Z,53.10
2022-09-28T03:55:13.763Z,53.00
2022-09-28T03:57:41.587Z,53.10
2022-09-28T04:00:11.275Z,53.10
2022-09-28T04:02:39.173Z,53.10
2022-09-28T04:05:09.276Z,53.10
2022-09-28T04:07:37.112Z,53.10
2022-09-28T04:10:05.308Z,53.10
2022-09-28T04:12:33.121Z,53.10
2022-09-28T04:15:00.930Z,53.10
2022-09-28T04:17:28.711Z,53.10
2022-09-28T04:19:57.712Z,53.10
2022-09-28T04:22:26.870Z,53.10
2022-09-28T04:24:54.675Z,53.10
2022-09-28T04:27:39.990Z,53.10
2022-09-28T04:30:09.099Z,53.10
2022-09-28T04:32:36.919Z,53.10
2022-09-28T04:35:05.174Z,53.10
2022-09-28T04:37:34.377Z,53.10
2022-09-28T04:40:02.850Z,53.10
2022-09-28T04:42:30.643Z,53.10
2022-09-28T04:44:58.807Z,53.10
2022-09-28T04:47:26.637Z,53.10
2022-09-28T04:49:54.594Z,53.10
2022-09-28T04:52:22.427Z,53.10
2022-09-28T04:54:51.651Z,53.10
2022-09-28T04:57:19.481Z,53.10
2022-09-28T04:59:47.291Z,53.00
2022-09-28T05:02:15.339Z,53.10
2022-09-28T05:04:43.304Z,53.00
2022-09-28T05:07:11.133Z,53.00
2022-09-28T05:09:39.142Z,53.10
2022-09-28T05:12:09.820Z,53.10
2022-09-28T05:14:37.632Z,53.10
2022-09-28T05:17:05.552Z,53.10
2022-09-28T05:19:34.838Z,53.10
2022-09-28T05:22:04.422Z,53.00
2022-09-28T05:24:32.502Z,53.00
2022-09-28T05:27:00.310Z,53.10
2022-09-28T05:29:32.202Z,53.10
2022-09-28T05:32:02.183Z,53.10
2022-09-28T05:34:30.142Z,53.10
2022-09-28T05:36:58.173Z,53.10
2022-09-28T05:39:26.002Z,53.10
2022-09-28T05:41:53.890Z,53.10
2022-09-28T05:44:21.745Z,53.10
2022-09-28T05:46:50.895Z,53.10
2022-09-28T05:49:18.705Z,53.10
2022-09-28T05:51:46.512Z,53.10
2022-09-28T05:54:14.424Z,53.10
2022-09-28T05:56:42.278Z,53.10
2022-09-28T05:59:10.117Z,53.10
2022-09-28T06:01:38.074Z,53.80
2022-09-28T06:04:08.833Z,53.10
2022-09-28T06:06:38.329Z,53.10
2022-09-28T06:09:06.194Z,53.10
2022-09-28T06:11:34.071Z,53.10
2022-09-28T06:14:01.899Z,53.10
2022-09-28T06:16:29.833Z,53.20
2022-09-28T06:18:57.806Z,53.10
2022-09-28T06:21:26.949Z,53.20
2022-09-28T06:23:54.945Z,53.20
2022-09-28T06:26:22.788Z,53.10
2022-09-28T06:28:50.627Z,53.10
2022-09-28T06:31:23.562Z,53.10
2022-09-28T06:33:52.129Z,53.10
2022-09-28T06:36:20.846Z,53.20
2022-09-28T06:38:50.060Z,53.20
2022-09-28T06:41:18.347Z,53.20
2022-09-28T06:43:46.415Z,53.20
2022-09-28T06:46:14.348Z,53.20
2022-09-28T06:48:42.598Z,53.20
2022-09-28T06:51:10.415Z,53.20
2022-09-28T06:53:38.508Z,53.20
2022-09-28T06:56:10.620Z,53.20
2022-09-28T06:58:38.656Z,53.20
2022-09-28T07:01:06.768Z,53.20
2022-09-28T07:03:34.648Z,53.80
2022-09-28T07:06:04.742Z,53.20
2022-09-28T07:08:32.707Z,53.20
2022-09-28T07:11:01.314Z,53.20
2022-09-28T07:13:48.989Z,53.20
2022-09-28T07:16:21.550Z,53.20
2022-09-28T07:18:52.014Z,53.10
2022-09-28T07:21:29.146Z,53.20
2022-09-28T07:23:58.275Z,53.10
2022-09-28T07:26:26.709Z,53.10
2022-09-28T07:28:56.210Z,53.10
2022-09-28T07:31:25.646Z,53.10
2022-09-28T07:33:53.779Z,53.10
2022-09-28T07:36:22.666Z,53.20
2022-09-28T07:38:50.869Z,53.10
2022-09-28T07:41:22.364Z,53.10
2022-09-28T07:43:50.772Z,53.10
2022-09-28T07:46:21.760Z,53.20
2022-09-28T07:48:51.717Z,53.20
2022-09-28T07:51:21.102Z,53.20
2022-09-28T07:53:49.011Z,53.10
2022-09-28T07:56:18.254Z,53.20
2022-09-28T07:58:48.603Z,53.20
2022-09-28T08:01:16.990Z,53.20
2022-09-28T08:03:48.237Z,53.10
2022-09-28T08:06:17.666Z,53.20
2022-09-28T08:08:46.402Z,53.20
2022-09-28T08:11:16.660Z,53.20
2022-09-28T08:13:46.363Z,53.20
2022-09-28T08:16:14.358Z,53.20
2022-09-28T08:18:42.374Z,53.20
2022-09-28T08:21:29.472Z,53.20
2022-09-28T08:23:57.709Z,53.20
2022-09-28T08:26:25.969Z,53.20
2022-09-28T08:28:53.829Z,53.20
2022-09-28T08:31:21.755Z,53.20
2022-09-28T08:33:52.986Z,53.20
2022-09-28T08:36:22.142Z,53.20
2022-09-28T08:38:49.997Z,53.20
2022-09-28T08:41:25.683Z,53.20
2022-09-28T08:44:13.727Z,53.20
2022-09-28T08:46:45.358Z,53.20
2022-09-28T08:49:25.365Z,53.20
2022-09-28T08:52:00.566Z,53.20
2022-09-28T08:54:42.057Z,53.20
2022-09-28T08:57:14.976Z,53.20
2022-09-28T08:59:50.389Z,53.20
2022-09-28T09:02:25.351Z,53.20
2022-09-28T09:04:54.318Z,53.20
2022-09-28T09:08:07.038Z,53.20
2022-09-28T09:10:50.816Z,53.20
2022-09-28T09:13:40.225Z,53.20
2022-09-28T09:16:15.209Z,53.20
2022-09-28T09:18:49.465Z,53.20
2022-09-28T09:21:30.261Z,53.20
2022-09-28T09:24:04.574Z,53.20
2022-09-28T09:26:39.511Z,53.20
2022-09-28T09:29:25.609Z,53.20
2022-09-28T09:32:07.384Z,53.20
2022-09-28T09:34:48.402Z,53.20
2022-09-28T09:37:36.474Z,53.20
2022-09-28T09:40:26.309Z,53.20
2022-09-28T09:43:12.445Z,53.20
2022-09-28T09:45:56.325Z,53.20
2022-09-28T09:48:29.793Z,53.20
2022-09-28T09:51:01.571Z,53.20
2022-09-28T09:53:37.688Z,53.20
2022-09-28T09:56:13.654Z,53.30
2022-09-28T09:58:47.756Z,53.20
2022-09-28T10:01:18.537Z,53.20
2022-09-28T10:03:49.172Z,53.20
2022-09-28T10:06:19.644Z,53.20
2022-09-28T10:08:51.334Z,53.20
2022-09-28T10:11:23.319Z,53.20
2022-09-28T10:13:52.553Z,53.20
2022-09-28T10:16:20.874Z,53.20
2022-09-28T10:18:49.665Z,53.20
2022-09-28T10:21:20.765Z,53.20
2022-09-28T10:23:55.325Z,53.20
2022-09-28T10:26:26.556Z,53.20
2022-09-28T10:28:58.672Z,53.20
2022-09-28T10:31:37.998Z,53.20
2022-09-28T10:34:07.529Z,53.20
2022-09-28T10:36:48.810Z,53.20
2022-09-28T10:39:32.230Z,53.20
2022-09-28T10:42:03.477Z,53.20
2022-09-28T10:44:35.848Z,53.20
2022-09-28T10:47:07.933Z,53.20
2022-09-28T10:49:46.557Z,53.20
2022-09-28T10:52:33.530Z,53.30
2022-09-28T10:55:02.291Z,53.20
2022-09-28T10:57:34.542Z,53.20
2022-09-28T11:00:05.827Z,53.20
2022-09-28T11:02:37.204Z,53.20
2022-09-28T11:05:07.390Z,53.20
2022-09-28T11:07:46.221Z,53.20
2022-09-28T11:10:22.905Z,53.20
2022-09-28T11:12:51.915Z,53.20
2022-09-28T11:15:23.865Z,53.20
2022-09-28T11:17:51.955Z,53.20
2022-09-28T11:20:31.319Z,53.20
2022-09-28T11:23:01.336Z,53.20
2022-09-28T11:25:31.119Z,53.20
2022-09-28T11:28:04.331Z,53.20
2022-09-28T11:30:40.471Z,53.20
2022-09-28T11:33:14.941Z,53.20
2022-09-28T11:35:51.015Z,53.20
2022-09-28T11:38:33.498Z,53.20
2022-09-28T11:41:23.223Z,53.20
2022-09-28T11:44:14.758Z,53.20
2022-09-28T11:46:51.316Z,53.20
2022-09-28T11:49:31.426Z,53.20
2022-09-28T11:52:04.821Z,53.20
2022-09-28T11:54:39.622Z,53.20
2022-09-28T11:57:15.516Z,53.20
2022-09-28T11:59:57.016Z,53.20
2022-09-28T12:02:31.867Z,53.20
2022-09-28T12:05:14.896Z,53.20
2022-09-28T12:07:50.006Z,53.20
2022-09-28T12:10:22.581Z,53.10
2022-09-28T12:12:55.265Z,53.10
2022-09-28T12:15:27.027Z,53.20
2022-09-28T12:18:01.781Z,53.20
2022-09-28T12:20:33.660Z,53.10
2022-09-28T12:23:06.032Z,53.20
2022-09-28T12:25:41.762Z,53.10
2022-09-28T12:28:19.226Z,53.20
2022-09-28T12:30:50.185Z,53.20
2022-09-28T12:33:19.459Z,53.20
2022-09-28T12:36:00.598Z,53.20
2022-09-28T12:38:46.006Z,53.20
2022-09-28T12:41:31.267Z,53.10
2022-09-28T12:44:22.693Z,53.10
2022-09-28T12:47:06.297Z,53.10
2022-09-28T12:50:36.665Z,53.10
2022-09-28T12:55:25.434Z,53.10
2022-09-28T12:58:02.571Z,53.10
2022-09-28T13:00:39.047Z,53.10
2022-09-28T13:03:45.666Z,53.20
2022-09-28T13:06:52.050Z,53.10
2022-09-28T13:09:23.933Z,53.10
2022-09-28T13:12:06.035Z,53.10
2022-09-28T13:15:15.384Z,53.10
2022-09-28T13:17:53.715Z,53.10
2022-09-28T13:20:42.669Z,53.10
2022-09-28T13:23:19.630Z,53.10
2022-09-28T13:25:55.505Z,53.10
2022-09-28T13:28:27.115Z,53.10
2022-09-28T13:33:35.897Z,53.10
2022-09-28T13:36:05.630Z,53.10
2022-09-28T13:38:54.933Z,53.10
2022-09-28T13:41:31.633Z,53.10
2022-09-28T13:44:31.888Z,53.10
2022-09-28T13:47:20.510Z,53.10
2022-09-28T13:50:01.432Z,53.10
2022-09-28T13:52:46.781Z,53.10
2022-09-28T13:55:24.846Z,53.10
2022-09-28T13:57:58.108Z,53.00
2022-09-28T14:00:30.631Z,53.00
2022-09-28T14:03:05.329Z,53.00
2022-09-28T14:05:42.133Z,53.00
2022-09-28T14:08:45.424Z,53.00
2022-09-28T14:11:42.519Z,53.00
2022-09-28T14:14:29.534Z,53.00
2022-09-28T14:17:20.722Z,53.00
2022-09-28T14:19:53.901Z,53.00
2022-09-28T14:22:30.276Z,53.00
2022-09-28T14:25:07.709Z,53.00
2022-09-28T14:27:55.401Z,53.00
2022-09-28T14:30:27.413Z,53.00
2022-09-28T14:32:57.502Z,53.00
2022-09-28T14:35:31.217Z,53.00
2022-09-28T14:38:21.819Z,53.00
2022-09-28T14:41:10.818Z,53.00
2022-09-28T14:43:54.479Z,53.70
2022-09-28T14:46:45.558Z,53.00
2022-09-28T14:49:47.501Z,53.00
2022-09-28T14:52:20.711Z,53.00
2022-09-28T14:54:54.098Z,53.00
2022-09-28T14:57:25.440Z,53.00
2022-09-28T14:59:53.959Z,53.00
2022-09-28T15:02:26.211Z,53.00
2022-09-28T15:04:59.736Z,53.00
2022-09-28T15:07:30.166Z,53.00
2022-09-28T15:09:58.869Z,53.00
2022-09-28T15:12:28.555Z,53.00
2022-09-28T15:14:58.742Z,53.00
2022-09-28T15:17:32.823Z,52.90
2022-09-28T15:20:30.074Z,53.00
2022-09-28T15:22:59.533Z,53.00
2022-09-28T15:25:30.030Z,52.90
2022-09-28T15:27:59.657Z,53.00
2022-09-28T15:30:29.516Z,52.90
2022-09-28T15:33:21.275Z,53.00
2022-09-28T15:35:52.403Z,52.90
2022-09-28T15:38:20.385Z,53.00
2022-09-28T15:40:48.900Z,53.00
2022-09-28T15:43:27.017Z,53.00
2022-09-28T15:46:02.570Z,53.00
2022-09-28T15:48:39.228Z,52.90
2022-09-28T15:51:10.744Z,53.00
2022-09-28T15:53:43.876Z,53.00
2022-09-28T15:56:12.367Z,53.00
2022-09-28T15:58:41.000Z,52.90
2022-09-28T16:01:36.528Z,53.00
2022-09-28T16:04:41.171Z,53.00
2022-09-28T16:07:20.400Z,53.00
2022-09-28T16:10:04.752Z,53.00
2022-09-28T16:12:43.306Z,53.00
2022-09-28T16:15:20.534Z,53.00
2022-09-28T16:17:54.367Z,53.00
2022-09-28T16:20:28.391Z,53.00
2022-09-28T16:22:57.753Z,53.60
2022-09-28T16:25:27.590Z,52.90
2022-09-28T16:27:56.476Z,53.00
2022-09-28T16:30:25.734Z,53.00
2022-09-28T16:32:56.370Z,52.90
2022-09-28T16:35:30.846Z,52.90
2022-09-28T16:38:05.552Z,53.00
2022-09-28T16:40:34.388Z,52.90
2022-09-28T16:43:05.800Z,52.90
2022-09-28T16:45:35.202Z,52.90
2022-09-28T16:48:03.723Z,52.90
2022-09-28T16:50:32.881Z,52.90
2022-09-28T16:53:21.409Z,52.90
2022-09-28T16:55:50.715Z,52.90
2022-09-28T16:58:18.751Z,52.90
2022-09-28T17:00:46.565Z,52.90
2022-09-28T17:03:17.221Z,52.90
2022-09-28T17:05:48.180Z,52.90
2022-09-28T17:08:18.232Z,52.90
2022-09-28T17:11:13.532Z,52.90
2022-09-28T17:13:40.548Z,52.90
2022-09-28T17:16:12.854Z,52.90
2022-09-28T17:18:40.787Z,52.90
2022-09-28T17:21:15.621Z,52.90
2022-09-28T17:23:43.973Z,52.90
2022-09-28T17:26:19.791Z,52.90
2022-09-28T17:28:47.854Z,52.90
2022-09-28T17:31:16.946Z,52.90
2022-09-28T17:33:45.054Z,52.90
2022-09-28T17:36:16.667Z,52.90
2022-09-28T17:38:45.663Z,52.90
2022-09-28T17:41:19.414Z,52.90
2022-09-28T17:43:48.736Z,52.90
2022-09-28T17:46:29.766Z,52.90
2022-09-28T17:49:00.361Z,52.90
2022-09-28T17:51:31.086Z,52.90
2022-09-28T17:54:00.852Z,52.90
2022-09-28T17:56:32.634Z,52.90
2022-09-28T17:59:03.012Z,52.90
2022-09-28T18:01:33.968Z,52.90
2022-09-28T18:04:03.305Z,52.90
2022-09-28T18:06:33.535Z,52.90
2022-09-28T18:09:01.786Z,52.90
2022-09-28T18:11:29.735Z,52.90
2022-09-28T18:13:57.536Z,52.90
2022-09-28T18:16:27.829Z,52.90
2022-09-28T18:18:55.878Z,52.90
2022-09-28T18:21:23.692Z,52.90
2022-09-28T18:23:52.853Z,52.90
2022-09-28T18:26:20.715Z,52.90
2022-09-28T18:28:48.752Z,52.90
2022-09-28T18:31:19.041Z,52.90
2022-09-28T18:36:35.769Z,52.90
2022-09-28T18:39:05.113Z,52.90
2022-09-28T18:41:33.016Z,52.90
2022-09-28T18:44:01.468Z,52.90
2022-09-28T18:46:30.194Z,52.90
2022-09-28T18:48:58.104Z,52.90
2022-09-28T18:51:26.408Z,52.90
2022-09-28T18:53:54.569Z,52.90
2022-09-28T18:56:23.983Z,52.90
2022-09-28T18:58:52.567Z,52.90
2022-09-28T19:01:30.817Z,52.90
2022-09-28T19:04:00.106Z,52.90
2022-09-28T19:06:28.504Z,52.90
2022-09-28T19:08:56.947Z,52.90
2022-09-28T19:11:26.770Z,52.90
2022-09-28T19:13:56.032Z,52.90
2022-09-28T19:16:25.512Z,52.90
2022-09-28T19:18:53.699Z,52.90
2022-09-28T19:21:22.138Z,52.90
2022-09-28T19:23:50.692Z,52.90
2022-09-28T19:26:21.390Z,52.90
2022-09-28T19:28:50.999Z,52.90
2022-09-28T19:31:19.367Z,52.90
2022-09-28T19:33:48.120Z,52.90
2022-09-28T19:36:18.478Z,52.90
2022-09-28T19:38:47.232Z,52.90
2022-09-28T19:41:39.448Z,52.90
2022-09-28T19:44:15.633Z,52.90
2022-09-28T19:46:43.897Z,52.90
2022-09-28T19:49:14.288Z,52.90
2022-09-28T19:52:10.941Z,52.90
2022-09-28T19:54:36.415Z,52.90
2022-09-28T19:57:08.452Z,52.90
2022-09-28T19:59:38.767Z,52.90
2022-09-28T20:02:08.286Z,52.90
2022-09-28T20:04:36.309Z,52.90
2022-09-28T20:07:05.058Z,52.90
2022-09-28T20:09:33.260Z,52.90
2022-09-28T20:12:01.389Z,52.90
2022-09-28T20:14:34.011Z,52.90
2022-09-28T20:17:07.145Z,52.90
2022-09-28T20:19:35.278Z,52.90
2022-09-28T20:22:03.510Z,53.00
2022-09-28T20:24:31.940Z,52.90
2022-09-28T20:27:01.152Z,52.90
2022-09-28T20:29:31.573Z,52.90
2022-09-28T20:32:00.334Z,52.90
2022-09-28T20:34:29.613Z,52.90
2022-09-28T20:36:57.520Z,53.00
2022-09-28T20:39:25.491Z,52.90
2022-09-28T20:41:53.558Z,52.90
2022-09-28T20:44:21.563Z,52.90
2022-09-28T20:46:51.189Z,52.90
2022-09-28T20:49:19.082Z,52.90
2022-09-28T20:51:48.347Z,52.90
2022-09-28T20:54:16.532Z,52.90
2022-09-28T20:56:44.520Z,52.80
2022-09-28T20:59:13.473Z,52.90
2022-09-28T21:01:41.812Z,52.90
2022-09-28T21:04:10.955Z,52.90
2022-09-28T21:06:40.703Z,52.80
2022-09-28T21:09:11.367Z,52.90
2022-09-28T21:11:40.310Z,52.90
2022-09-28T21:14:10.209Z,53.60
2022-09-28T21:16:39.314Z,52.90
2022-09-28T21:19:07.273Z,52.90
2022-09-28T21:21:35.274Z,52.90
2022-09-28T21:24:03.357Z,52.90
2022-09-28T21:26:33.028Z,52.90
2022-09-28T21:29:02.409Z,52.90
2022-09-28T21:31:32.422Z,52.90
2022-09-28T21:34:01.054Z,52.90
2022-09-28T21:36:28.959Z,52.90
2022-09-28T21:38:56.910Z,52.90
2022-09-28T21:41:25.461Z,52.90
2022-09-28T21:43:54.652Z,52.90
2022-09-28T21:46:22.795Z,52.90
2022-09-28T21:48:53.290Z,53.60
2022-09-28T21:51:21.801Z,52.90
2022-09-28T21:53:50.119Z,52.80
2022-09-28T21:56:18.607Z,52.90
2022-09-28T21:58:46.442Z,52.90
2022-09-28T22:01:19.418Z,52.80
2022-09-28T22:03:50.497Z,52.90
2022-09-28T22:06:20.525Z,52.80
2022-09-28T22:08:49.054Z,52.80
2022-09-28T22:11:18.919Z,52.80
2022-09-28T22:13:48.104Z,52.80
2022-09-28T22:16:19.453Z,52.80
2022-09-28T22:18:47.609Z,52.80
2022-09-28T22:21:18.217Z,52.80
2022-09-28T22:23:46.222Z,52.80
2022-09-28T22:26:17.929Z,52.80
2022-09-28T22:28:47.767Z,52.80
2022-09-28T22:31:18.491Z,52.80
2022-09-28T22:33:46.483Z,52.80
2022-09-28T22:36:16.900Z,52.80
2022-09-28T22:38:45.377Z,52.80
2022-09-28T22:41:14.505Z,52.80
2022-09-28T22:43:43.055Z,52.80
2022-09-28T22:46:12.952Z,52.80
2022-09-28T22:48:43.205Z,53.50
2022-09-28T22:51:11.078Z,52.80
2022-09-28T22:53:38.950Z,52.80
2022-09-28T22:56:08.023Z,52.80
2022-09-28T22:58:37.184Z,52.80
2022-09-28T23:01:09.278Z,52.80
2022-09-28T23:03:39.991Z,52.80
2022-09-28T23:06:10.849Z,52.80
2022-09-28T23:08:39.305Z,52.80
2022-09-28T23:11:07.908Z,53.50
2022-09-28T23:13:37.515Z,52.80
2022-09-28T23:16:07.626Z,52.80
2022-09-28T23:18:37.114Z,52.80
2022-09-28T23:21:07.115Z,52.80
2022-09-28T23:23:36.341Z,52.80
2022-09-28T23:26:11.610Z,52.80
2022-09-28T23:28:39.632Z,52.80
2022-09-28T23:31:12.467Z,52.80
2022-09-28T23:33:40.424Z,52.80
2022-09-28T23:36:09.528Z,52.80
2022-09-28T23:38:39.195Z,52.80
2022-09-28T23:41:07.193Z,52.80
2022-09-28T23:43:36.095Z,52.80
2022-09-28T23:46:04.173Z,52.80
2022-09-28T23:48:32.295Z,52.80
2022-09-28T23:51:00.610Z,52.80
2022-09-28T23:53:29.087Z,52.80
2022-09-28T23:55:58.285Z,52.80
2022-09-28T23:58:26.250Z,52.80
